Time;durP1;ratioP1;P1;durP2;ratioP2;P2;SDS_P1;SDS_P2;PMS_P1;PMS_P2;Temp;Humidity;BMP_temperature;BMP_pressure;BME280_temperature;BME280_humidity;BME280_pressure;Samples;Min_cycle;Max_cycle;Signal;HPM_P1;HPM_P2
2022/02/12 00:02:16;;;;;;;20.58;10.55;;;0.10;99.90;;;;;;5092577;28;20110;-69
2022/02/12 00:04:42;;;;;;;22.75;11.68;;;0.10;99.90;;;;;;5082347;28;20047;-69
2022/02/12 00:07:08;;;;;;;28.77;12.93;;;0.10;99.90;;;;;;5078702;28;20028;-68
2022/02/12 00:09:34;;;;;;;25.92;12.07;;;0.20;99.90;;;;;;5092557;28;20028;-68
2022/02/12 00:11:59;;;;;;;26.17;12.75;;;0.10;99.90;;;;;;5085284;28;20047;-69
2022/02/12 00:14:25;;;;;;;27.38;12.82;;;0.10;99.90;;;;;;5080345;28;20040;-69
2022/02/12 00:16:50;;;;;;;29.10;12.20;;;0.10;99.90;;;;;;5083577;28;20020;-69
2022/02/12 00:19:16;;;;;;;28.67;12.68;;;0.10;99.90;;;;;;5080907;28;20387;-68
2022/02/12 00:21:41;;;;;;;24.08;12.73;;;0.10;99.90;;;;;;5088753;28;20032;-68
2022/02/12 00:24:07;;;;;;;25.55;12.23;;;0.10;99.90;;;;;;5086248;28;20020;-68
2022/02/12 00:26:33;;;;;;;24.27;11.85;;;0.10;99.90;;;;;;5092803;28;20031;-69
2022/02/12 00:28:58;;;;;;;24.25;12.45;;;0.10;99.90;;;;;;5089952;28;20100;-68
2022/02/12 00:31:24;;;;;;;22.73;12.15;;;0.00;99.90;;;;;;5085247;28;20372;-69
2022/02/12 00:33:49;;;;;;;24.98;11.70;;;0.00;99.90;;;;;;5089419;28;20032;-68
2022/02/12 00:36:15;;;;;;;17.17;10.50;;;0.00;99.90;;;;;;5091469;28;20028;-68
2022/02/12 00:38:40;;;;;;;21.65;9.63;;;0.00;99.90;;;;;;5084653;28;20035;-69
2022/02/12 00:41:06;;;;;;;16.08;9.43;;;-0.10;99.90;;;;;;5092735;28;20058;-68
2022/02/12 00:43:31;;;;;;;17.10;9.50;;;-0.10;99.90;;;;;;5083703;28;20028;-69
2022/02/12 00:45:57;;;;;;;17.02;8.68;;;-0.10;99.90;;;;;;5084268;28;20039;-69
2022/02/12 00:48:23;;;;;;;23.48;9.70;;;-0.10;99.90;;;;;;5091535;28;20577;-69
2022/02/12 00:50:48;;;;;;;17.20;9.20;;;-0.10;99.90;;;;;;5080175;28;20043;-69
2022/02/12 00:53:14;;;;;;;19.58;9.32;;;-0.10;99.90;;;;;;5088735;28;20028;-69
2022/02/12 00:55:40;;;;;;;22.17;9.95;;;-0.10;99.90;;;;;;5080909;28;20115;-69
2022/02/12 00:58:05;;;;;;;25.52;10.52;;;-0.10;99.90;;;;;;5076525;28;20023;-69
2022/02/12 01:00:31;;;;;;;26.17;10.90;;;-0.10;99.90;;;;;;5092313;28;20052;-69
2022/02/12 01:02:56;;;;;;;39.00;10.45;;;-0.20;99.90;;;;;;5090350;28;20055;-69
2022/02/12 01:05:22;;;;;;;58.05;11.77;;;-0.20;99.90;;;;;;5091019;28;20051;-69
2022/02/12 01:07:48;;;;;;;33.50;10.85;;;-0.20;99.90;;;;;;5090368;28;20028;-69
2022/02/12 01:10:14;;;;;;;53.50;10.07;;;-0.20;99.90;;;;;;5090118;28;20482;-69
2022/02/12 01:12:39;;;;;;;21.52;11.15;;;-0.20;99.90;;;;;;5082587;28;20039;-69
2022/02/12 01:15:05;;;;;;;23.35;10.35;;;-0.20;99.90;;;;;;5083204;28;20468;-69
2022/02/12 01:17:31;;;;;;;37.60;10.80;;;-0.20;99.90;;;;;;5089739;28;20032;-67
2022/02/12 01:19:58;;;;;;;37.97;10.40;;;-0.20;99.90;;;;;;5088954;28;20085;-70
2022/02/12 01:22:24;;;;;;;25.30;9.13;;;-0.10;99.90;;;;;;5085897;28;20024;-69
2022/02/12 01:24:51;;;;;;;27.33;11.20;;;-0.20;99.90;;;;;;5076595;28;20025;-69
2022/02/12 01:27:17;;;;;;;27.27;9.82;;;-0.20;99.90;;;;;;5079718;28;20039;-67
2022/02/12 01:29:42;;;;;;;23.25;9.77;;;-0.20;99.90;;;;;;5076187;28;20024;-67
2022/02/12 01:32:09;;;;;;;26.38;10.20;;;-0.20;99.90;;;;;;5089550;28;20032;-67
2022/02/12 01:34:36;;;;;;;36.17;10.93;;;-0.30;99.90;;;;;;5088482;28;20031;-69
2022/02/12 01:37:03;;;;;;;21.30;10.65;;;-0.30;99.90;;;;;;5088493;28;20527;-67
2022/02/12 01:39:29;;;;;;;26.05;10.82;;;-0.30;99.90;;;;;;5079643;28;20162;-69
2022/02/12 01:41:55;;;;;;;30.42;11.50;;;-0.40;99.90;;;;;;5090610;28;20514;-69
2022/02/12 01:44:36;;;;;;;25.65;12.38;;;-0.40;99.90;;;;;;5088330;28;20039;-67
2022/02/12 01:47:03;;;;;;;22.23;11.07;;;-0.50;99.90;;;;;;5089902;28;20035;-66
2022/02/12 01:49:29;;;;;;;24.27;11.93;;;-0.40;99.90;;;;;;5083264;28;20056;-67
2022/02/12 01:51:56;;;;;;;24.52;12.20;;;-0.40;99.90;;;;;;5090305;28;20106;-67
2022/02/12 01:54:24;;;;;;;25.42;12.20;;;-0.40;99.90;;;;;;5087922;28;20070;-68
2022/02/12 01:56:50;;;;;;;23.52;12.25;;;-0.40;99.90;;;;;;5082874;28;20041;-67
2022/02/12 01:59:18;;;;;;;24.27;11.55;;;-0.50;99.90;;;;;;5085252;28;20016;-66
2022/02/12 02:01:44;;;;;;;39.08;11.52;;;-0.50;99.90;;;;;;5083341;28;20089;-69
2022/02/12 02:04:10;;;;;;;29.50;10.70;;;-0.50;99.90;;;;;;5075937;28;20036;-69
2022/02/12 02:06:36;;;;;;;22.95;9.80;;;-0.50;99.90;;;;;;5087154;28;20035;-69
2022/02/12 02:09:04;;;;;;;25.40;10.77;;;-0.50;99.90;;;;;;5090129;28;20055;-67
2022/02/12 02:11:31;;;;;;;31.02;10.13;;;-0.50;99.90;;;;;;5075805;28;20379;-67
2022/02/12 02:13:57;;;;;;;27.23;10.25;;;-0.50;99.90;;;;;;5075486;28;20073;-69
2022/02/12 02:16:22;;;;;;;33.90;10.43;;;-0.60;99.90;;;;;;5090834;28;20028;-67
2022/02/12 02:18:48;;;;;;;32.80;8.80;;;-0.60;99.90;;;;;;5079906;28;20032;-69
2022/02/12 02:21:17;;;;;;;17.13;9.57;;;-0.60;99.90;;;;;;5086737;28;20152;-67
2022/02/12 02:23:42;;;;;;;18.88;8.60;;;-0.70;99.90;;;;;;5070610;28;20463;-69
2022/02/12 02:26:09;;;;;;;31.63;8.90;;;-0.70;99.90;;;;;;5070300;28;20129;-69
2022/02/12 02:28:35;;;;;;;33.42;8.77;;;-0.70;99.90;;;;;;5077121;28;20028;-67
2022/02/12 02:31:01;;;;;;;19.38;9.35;;;-0.70;99.90;;;;;;5089380;28;20100;-67
2022/02/12 02:33:27;;;;;;;18.92;9.68;;;-0.70;99.90;;;;;;5089386;28;20535;-67
2022/02/12 02:35:53;;;;;;;27.95;9.73;;;-0.70;99.90;;;;;;5084028;28;20150;-69
2022/02/12 02:38:18;;;;;;;30.08;9.32;;;-0.70;99.90;;;;;;5089250;28;20341;-69
2022/02/12 02:40:45;;;;;;;31.60;9.63;;;-0.70;99.90;;;;;;5088481;28;20047;-69
2022/02/12 02:43:11;;;;;;;17.50;9.27;;;-0.60;99.90;;;;;;5083723;28;20028;-69
2022/02/12 02:45:37;;;;;;;26.27;9.05;;;-0.60;99.90;;;;;;5090151;28;20062;-69
2022/02/12 02:48:05;;;;;;;38.38;8.40;;;-0.70;99.90;;;;;;5069026;28;20032;-69
2022/02/12 02:56:07;;;;;;;30.58;8.55;;;-0.70;99.90;;;;;;5087434;28;20032;-69
2022/02/12 02:58:43;;;;;;;;;;;-0.80;99.90;;;;;;5079109;28;20016;-69
2022/02/12 03:01:19;;;;;;;14.52;7.38;;;-0.80;99.90;;;;;;5088716;28;20366;-68
2022/02/12 03:03:48;;;;;;;14.13;8.65;;;-0.80;99.90;;;;;;5088379;28;20098;-68
2022/02/12 03:06:15;;;;;;;19.40;8.77;;;-0.80;99.90;;;;;;5088089;28;20028;-68
2022/02/12 03:08:41;;;;;;;17.27;7.70;;;-0.90;99.90;;;;;;5088918;28;20438;-69
2022/02/12 03:11:08;;;;;;;15.00;8.30;;;-1.00;99.90;;;;;;5089174;28;20162;-68
2022/02/12 03:13:34;;;;;;;15.45;8.27;;;-1.00;99.90;;;;;;5089313;28;20664;-68
2022/02/12 03:16:00;;;;;;;18.08;8.15;;;-1.00;99.90;;;;;;5088507;28;20028;-69
2022/02/12 03:18:27;;;;;;;20.17;9.48;;;-1.00;99.90;;;;;;5088870;28;20030;-68
2022/02/12 03:20:53;;;;;;;19.67;8.60;;;-0.90;99.90;;;;;;5085504;28;20024;-69
2022/02/12 03:23:18;;;;;;;17.02;8.00;;;-0.90;99.90;;;;;;5089737;28;20084;-69
2022/02/12 03:25:44;;;;;;;22.00;8.82;;;-0.90;99.90;;;;;;5087278;28;20429;-68
2022/02/12 03:28:11;;;;;;;17.25;8.25;;;-0.90;99.90;;;;;;5086429;28;20056;-68
2022/02/12 03:30:39;;;;;;;17.20;8.43;;;-0.90;99.90;;;;;;5087639;28;20024;-68
2022/02/12 03:33:05;;;;;;;21.90;8.75;;;-1.00;99.90;;;;;;5080910;28;20062;-69
2022/02/12 03:35:32;;;;;;;20.77;8.50;;;-1.00;99.90;;;;;;5081412;28;20082;-69
2022/02/12 03:38:08;;;;;;;22.73;8.63;;;-1.00;99.90;;;;;;5089103;28;20028;-69
2022/02/12 03:40:35;;;;;;;18.20;8.43;;;-1.00;99.90;;;;;;5078686;28;20173;-69
2022/02/12 03:43:00;;;;;;;23.25;8.88;;;-1.00;99.90;;;;;;5088677;28;20036;-68
2022/02/12 03:45:26;;;;;;;22.58;8.73;;;-1.10;99.90;;;;;;5078171;28;20036;-69
2022/02/12 03:47:52;;;;;;;18.20;7.65;;;-1.10;99.90;;;;;;5068350;28;20074;-69
2022/02/12 03:50:17;;;;;;;20.30;7.63;;;-1.10;99.90;;;;;;5069531;28;20112;-69
2022/02/12 03:52:43;;;;;;;14.90;8.05;;;-1.10;99.90;;;;;;5088890;28;20101;-69
2022/02/12 03:55:10;;;;;;;28.88;8.32;;;-1.10;99.90;;;;;;5079263;28;20033;-68
2022/02/12 03:57:39;;;;;;;18.90;8.02;;;-1.00;99.90;;;;;;5085924;28;20537;-68
2022/02/12 04:00:11;;;;;;;20.02;8.40;;;-1.00;99.90;;;;;;5081590;28;20127;-69
2022/02/12 04:02:41;;;;;;;22.63;8.20;;;-1.00;99.90;;;;;;5084351;28;20047;-68
2022/02/12 04:05:10;;;;;;;21.42;8.85;;;-1.10;99.90;;;;;;5081103;28;20062;-69
2022/02/12 04:07:37;;;;;;;16.42;9.02;;;-1.10;99.90;;;;;;5084814;28;20043;-69
2022/02/12 04:10:04;;;;;;;17.67;9.02;;;-1.10;99.90;;;;;;5088838;28;20035;-69
2022/02/12 04:12:29;;;;;;;17.40;9.07;;;-1.10;99.90;;;;;;5085628;28;20032;-68
2022/02/12 04:14:56;;;;;;;18.08;9.57;;;-1.10;99.90;;;;;;5069540;28;20024;-68
2022/02/12 04:17:22;;;;;;;26.40;9.18;;;-1.10;99.90;;;;;;5071949;28;20028;-69
2022/02/12 04:19:47;;;;;;;26.67;8.55;;;-1.00;99.90;;;;;;5087248;28;20065;-69
2022/02/12 04:22:13;;;;;;;19.20;8.98;;;-1.00;99.90;;;;;;5082312;28;20028;-69
2022/02/12 04:24:39;;;;;;;18.05;9.02;;;-1.10;99.90;;;;;;5074165;28;20059;-69
2022/02/12 04:27:04;;;;;;;19.27;7.82;;;-1.10;99.90;;;;;;5083234;28;20409;-69
2022/02/12 04:29:30;;;;;;;15.20;8.63;;;-1.10;99.90;;;;;;5078842;28;20031;-69
2022/02/12 04:31:55;;;;;;;23.42;9.55;;;-1.10;99.90;;;;;;5087837;28;20028;-68
2022/02/12 04:34:21;;;;;;;25.25;9.52;;;-1.10;99.90;;;;;;5087787;28;20028;-69
2022/02/12 04:36:47;;;;;;;22.20;10.20;;;-1.10;99.90;;;;;;5086715;28;20024;-69
2022/02/12 04:39:13;;;;;;;21.75;9.00;;;-1.10;99.90;;;;;;5088680;28;20028;-68
2022/02/12 04:41:39;;;;;;;23.50;9.35;;;-1.10;99.90;;;;;;5087725;28;20032;-69
2022/02/12 04:44:05;;;;;;;20.15;9.45;;;-1.10;99.90;;;;;;5093047;28;20384;-69
2022/02/12 04:46:30;;;;;;;20.33;10.07;;;-1.00;99.90;;;;;;5088297;28;20472;-69
2022/02/12 04:48:56;;;;;;;18.90;9.02;;;-1.00;99.90;;;;;;5091323;28;20031;-69
2022/02/12 04:51:22;;;;;;;22.48;9.18;;;-1.00;99.90;;;;;;5087710;28;20028;-69
2022/02/12 04:53:49;;;;;;;18.98;9.20;;;-1.00;99.90;;;;;;5088733;28;20024;-69
2022/02/12 04:56:15;;;;;;;17.15;8.18;;;-1.10;99.90;;;;;;5082283;28;20106;-69
2022/02/12 04:58:41;;;;;;;20.25;7.75;;;-1.10;99.90;;;;;;5089053;28;20027;-69
2022/02/12 05:01:19;;;;;;;16.25;7.93;;;-1.20;99.90;;;;;;5083771;28;20027;-69
2022/02/12 05:03:49;;;;;;;15.70;7.80;;;-1.20;99.90;;;;;;5086881;28;20041;-68
2022/02/12 05:06:15;;;;;;;12.25;6.97;;;-1.20;99.90;;;;;;5084593;28;20111;-68
2022/02/12 05:08:41;;;;;;;13.35;7.43;;;-1.20;99.90;;;;;;5087056;28;20035;-68
2022/02/12 05:11:06;;;;;;;14.23;7.53;;;-1.20;99.90;;;;;;5091489;28;20028;-68
2022/02/12 05:13:32;;;;;;;28.33;7.55;;;-1.30;99.90;;;;;;5090315;28;20605;-68
2022/02/12 05:15:57;;;;;;;10.93;7.18;;;-1.30;99.90;;;;;;5084881;28;20444;-68
2022/02/12 05:18:23;;;;;;;12.10;7.50;;;-1.40;99.90;;;;;;5084604;28;20099;-68
2022/02/12 05:20:49;;;;;;;15.88;7.65;;;-1.50;99.90;;;;;;5114219;22;20445;-70
2022/02/12 05:23:14;;;;;;;13.63;7.72;;;-1.50;99.90;;;;;;5111307;28;20099;-70
2022/02/12 05:25:41;;;;;;;14.70;7.13;;;-1.60;99.90;;;;;;5108096;28;20049;-70
2022/02/12 05:28:06;;;;;;;17.60;7.45;;;-1.60;99.90;;;;;;5089969;28;20020;-69
2022/02/12 05:30:33;;;;;;;19.45;6.60;;;-1.60;99.90;;;;;;5092745;28;20043;-70
2022/02/12 05:32:59;;;;;;;13.50;7.57;;;-1.60;99.90;;;;;;5092050;28;20020;-70
2022/02/12 05:35:25;;;;;;;13.30;7.57;;;-1.60;99.90;;;;;;5074134;28;20089;-69
2022/02/12 05:37:50;;;;;;;13.38;8.15;;;-1.60;99.90;;;;;;5090638;28;20016;-69
2022/02/12 05:40:16;;;;;;;16.23;7.88;;;-1.60;99.90;;;;;;5084948;28;20337;-70
2022/02/12 05:42:42;;;;;;;14.65;7.38;;;-1.60;99.90;;;;;;5055951;28;20131;-69
2022/02/12 05:45:08;;;;;;;14.82;7.82;;;-1.60;99.90;;;;;;5083100;28;20056;-68
2022/02/12 05:47:40;;;;;;;16.48;8.27;;;-1.50;99.90;;;;;;5064210;28;20032;-68
2022/02/12 05:50:07;;;;;;;13.50;7.60;;;-1.50;99.90;;;;;;5085982;28;20025;-69
2022/02/12 05:52:33;;;;;;;16.85;7.55;;;-1.40;99.90;;;;;;5073418;28;20077;-68
2022/02/12 05:54:59;;;;;;;13.23;7.70;;;-1.40;99.90;;;;;;5070583;28;20119;-69
2022/02/12 05:57:24;;;;;;;13.50;7.45;;;-1.50;99.90;;;;;;5090213;28;20027;-69
2022/02/12 05:59:50;;;;;;;15.20;7.93;;;-1.50;99.90;;;;;;5088516;28;20028;-71
2022/02/12 06:02:16;;;;;;;22.25;7.90;;;-1.40;99.90;;;;;;5087424;28;20024;-69
2022/02/12 06:04:41;;;;;;;16.95;8.18;;;-1.50;99.90;;;;;;5092988;28;20106;-69
2022/02/12 06:07:07;;;;;;;13.43;7.43;;;-1.50;99.90;;;;;;5091147;28;20087;-69
2022/02/12 06:09:32;;;;;;;16.45;6.90;;;-1.60;99.90;;;;;;5089305;28;20512;-69
2022/02/12 06:11:58;;;;;;;12.20;6.88;;;-1.70;99.90;;;;;;5091083;28;20016;-72
2022/02/12 06:14:24;;;;;;;17.45;7.05;;;-1.80;99.90;;;;;;5090505;28;20028;-70
2022/02/12 06:16:49;;;;;;;12.85;7.18;;;-1.90;99.90;;;;;;5091016;28;20039;-70
2022/02/12 06:19:15;;;;;;;10.82;7.32;;;-1.90;99.90;;;;;;5085052;28;20024;-70
2022/02/12 06:21:40;;;;;;;12.52;7.13;;;-1.90;99.90;;;;;;5081782;28;20024;-71
2022/02/12 06:24:06;;;;;;;12.93;7.22;;;-1.90;99.90;;;;;;5079174;28;20021;-70
2022/02/12 06:26:32;;;;;;;11.32;6.85;;;-1.90;99.90;;;;;;5089191;28;20028;-70
2022/02/12 06:28:57;;;;;;;12.40;6.85;;;-2.00;99.90;;;;;;5091905;28;20059;-70
2022/02/12 06:31:23;;;;;;;11.48;6.75;;;-2.00;99.90;;;;;;5090372;28;20032;-70
2022/02/12 06:33:48;;;;;;;13.40;6.85;;;-2.00;99.90;;;;;;5083267;28;20449;-70
2022/02/12 06:36:14;;;;;;;13.00;6.68;;;-2.00;99.90;;;;;;5082902;28;20032;-70
2022/02/12 06:38:39;;;;;;;11.88;7.32;;;-2.00;99.90;;;;;;5089024;28;20039;-70
2022/02/12 06:41:05;;;;;;;12.55;7.45;;;-2.10;99.90;;;;;;5090466;28;20035;-71
2022/02/12 06:43:31;;;;;;;11.15;7.05;;;-2.10;99.90;;;;;;5090275;28;20044;-70
2022/02/12 06:45:56;;;;;;;9.65;6.43;;;-2.00;99.90;;;;;;5072948;28;20499;-70
2022/02/12 06:48:22;;;;;;;11.20;6.38;;;-2.00;99.90;;;;;;5088680;28;20177;-70
2022/02/12 06:50:48;;;;;;;14.35;6.80;;;-2.00;99.90;;;;;;5079697;28;20028;-70
2022/02/12 06:53:13;;;;;;;11.75;6.63;;;-2.00;99.90;;;;;;5065220;28;20066;-71
2022/02/12 06:55:39;;;;;;;12.55;7.68;;;-2.00;99.90;;;;;;5071764;28;20035;-70
2022/02/12 06:58:05;;;;;;;14.15;7.53;;;-2.00;99.90;;;;;;5089135;28;20024;-70
2022/02/12 07:00:31;;;;;;;14.88;7.50;;;-1.90;99.90;;;;;;5089515;28;20038;-70
2022/02/12 07:02:57;;;;;;;17.80;8.18;;;-1.90;99.90;;;;;;5089244;28;20024;-70
2022/02/12 07:05:23;;;;;;;13.13;7.68;;;-1.80;99.90;;;;;;5089361;28;20028;-70
2022/02/12 07:07:50;;;;;;;14.38;7.72;;;-1.70;99.90;;;;;;5089349;28;20073;-72
2022/02/12 07:10:17;;;;;;;13.85;7.70;;;-1.50;99.90;;;;;;5070676;28;20386;-70
2022/02/12 07:12:43;;;;;;;12.90;6.57;;;-1.20;99.90;;;;;;5091137;28;20036;-71
2022/02/12 07:15:10;;;;;;;11.48;6.53;;;-1.00;99.90;;;;;;5089121;28;20020;-70
2022/02/12 07:17:39;;;;;;;11.38;6.30;;;-0.60;99.90;;;;;;5085961;28;20020;-70
2022/02/12 07:20:07;;;;;;;10.50;6.10;;;-0.10;99.90;;;;;;5070933;28;20058;-70
2022/02/12 07:22:32;;;;;;;14.65;6.88;;;0.30;99.90;;;;;;5073099;28;20115;-71
2022/02/12 07:24:58;;;;;;;14.27;7.10;;;0.70;99.90;;;;;;5080473;28;20056;-74
2022/02/12 07:27:24;;;;;;;10.32;7.20;;;1.00;99.90;;;;;;5079556;28;20092;-70
2022/02/12 07:29:49;;;;;;;9.98;6.05;;;1.20;99.90;;;;;;5090115;28;20099;-70
2022/02/12 07:32:15;;;;;;;10.88;5.75;;;1.30;99.90;;;;;;5088988;28;20384;-70
2022/02/12 07:34:40;;;;;;;10.90;5.72;;;1.60;99.90;;;;;;5090231;28;20032;-72
2022/02/12 07:37:06;;;;;;;11.95;6.10;;;2.00;99.90;;;;;;5065938;28;20063;-69
2022/02/12 07:39:32;;;;;;;9.40;5.90;;;2.30;99.90;;;;;;5072519;28;20029;-70
2022/02/12 07:41:58;;;;;;;8.30;5.60;;;2.70;99.90;;;;;;5090240;28;20479;-70
2022/02/12 07:44:24;;;;;;;7.80;4.78;;;3.00;99.90;;;;;;5085802;28;20150;-70
2022/02/12 07:46:49;;;;;;;7.88;5.63;;;3.30;99.90;;;;;;5090543;28;20091;-71
2022/02/12 07:49:15;;;;;;;6.85;4.68;;;3.30;99.90;;;;;;5089295;28;20078;-72
2022/02/12 07:51:40;;;;;;;5.40;4.43;;;3.30;99.90;;;;;;5086921;28;20036;-69
2022/02/12 07:54:06;;;;;;;5.80;4.57;;;3.30;99.90;;;;;;5074796;28;20019;-70
2022/02/12 07:56:32;;;;;;;6.57;5.15;;;3.40;99.90;;;;;;5094981;28;20016;-69
2022/02/12 07:58:58;;;;;;;7.53;5.30;;;3.50;99.90;;;;;;5088580;28;20093;-68
2022/02/12 08:01:24;;;;;;;6.65;5.22;;;3.70;99.90;;;;;;5089859;28;20039;-71
2022/02/12 08:03:50;;;;;;;10.38;6.10;;;3.90;99.90;;;;;;5090198;28;20511;-70
2022/02/12 08:09:03;;;;;;;15.93;8.18;;;4.10;99.90;;;;;;5074001;28;20082;-71
2022/02/12 08:11:35;;;;;;;10.10;6.35;;;4.30;99.90;;;;;;5089556;28;20024;-70
2022/02/12 08:14:00;;;;;;;11.63;6.05;;;4.30;99.90;;;;;;5072941;28;20062;-70
2022/02/12 08:16:26;;;;;;;7.95;5.63;;;4.30;99.90;;;;;;5070177;28;20032;-71
2022/02/12 08:18:51;;;;;;;7.72;5.90;;;4.40;99.90;;;;;;5092452;28;20103;-69
2022/02/12 08:21:17;;;;;;;9.50;5.78;;;4.40;99.90;;;;;;5082342;28;20089;-70
2022/02/12 08:23:43;;;;;;;11.20;5.13;;;4.50;99.90;;;;;;5073745;28;20028;-69
2022/02/12 08:26:09;;;;;;;10.40;5.57;;;4.50;99.90;;;;;;5087449;28;20480;-70
2022/02/12 08:28:34;;;;;;;12.05;5.55;;;4.60;99.90;;;;;;5072198;28;20027;-70
2022/02/12 08:31:00;;;;;;;9.55;5.82;;;4.70;99.90;;;;;;5078698;28;20024;-69
2022/02/12 08:33:26;;;;;;;10.45;5.97;;;4.70;99.90;;;;;;5075636;28;20024;-69
2022/02/12 08:35:51;;;;;;;9.82;5.45;;;4.60;99.90;;;;;;5093292;28;20028;-69
2022/02/12 08:38:17;;;;;;;11.15;6.22;;;4.60;99.90;;;;;;5073002;28;20053;-68
2022/02/12 08:40:43;;;;;;;13.43;6.63;;;4.60;99.90;;;;;;5064055;28;20052;-68
2022/02/12 08:43:11;;;;;;;12.93;6.05;;;4.60;99.90;;;;;;5089026;28;20040;-70
2022/02/12 08:45:37;;;;;;;10.10;5.82;;;4.60;99.90;;;;;;5072797;28;20032;-70
2022/02/12 08:48:06;;;;;;;11.93;6.57;;;4.60;99.90;;;;;;5089221;28;20522;-70
2022/02/12 08:50:31;;;;;;;12.52;5.88;;;4.60;99.90;;;;;;5089513;28;20039;-70
2022/02/12 08:52:57;;;;;;;11.00;5.63;;;4.60;99.90;;;;;;5075204;28;20017;-70
2022/02/12 08:55:24;;;;;;;12.98;6.20;;;4.50;99.90;;;;;;5091722;28;20107;-70
2022/02/12 08:57:50;;;;;;;12.45;5.88;;;4.40;99.90;;;;;;5074030;28;20023;-70
2022/02/12 09:00:15;;;;;;;10.52;5.70;;;4.40;99.90;;;;;;5084476;28;20020;-70
2022/02/12 09:02:41;;;;;;;14.95;6.28;;;4.40;99.90;;;;;;5087965;28;20064;-71
2022/02/12 09:05:07;;;;;;;12.10;6.13;;;4.30;99.90;;;;;;5088161;28;20020;-71
2022/02/12 09:07:32;;;;;;;12.52;6.32;;;4.30;99.90;;;;;;5069986;28;20251;-69
2022/02/12 09:09:58;;;;;;;12.55;6.22;;;4.30;99.90;;;;;;5085133;28;20028;-69
2022/02/12 09:12:25;;;;;;;8.60;6.25;;;4.30;99.90;;;;;;5086370;28;20016;-69
2022/02/12 09:14:50;;;;;;;11.02;6.13;;;4.20;99.90;;;;;;5089354;28;20032;-69
2022/02/12 09:17:16;;;;;;;10.43;5.88;;;4.20;99.90;;;;;;5091080;28;20020;-69
2022/02/12 09:19:42;;;;;;;10.50;5.80;;;4.20;99.90;;;;;;5092220;28;20028;-69
2022/02/12 09:22:08;;;;;;;9.98;6.45;;;4.30;99.90;;;;;;5074637;28;20051;-69
2022/02/12 09:24:36;;;;;;;13.63;6.32;;;4.30;99.90;;;;;;5090592;28;20624;-69
2022/02/12 09:27:02;;;;;;;13.80;5.93;;;4.30;99.90;;;;;;5072332;28;20024;-68
2022/02/12 09:29:28;;;;;;;12.48;5.80;;;4.30;99.90;;;;;;5078697;28;20066;-69
2022/02/12 09:31:54;;;;;;;11.05;5.30;;;4.30;99.90;;;;;;5070801;28;20027;-68
2022/02/12 09:34:19;;;;;;;13.85;5.90;;;4.40;99.90;;;;;;5092326;28;20016;-69
2022/02/12 09:36:45;;;;;;;9.93;5.65;;;4.50;99.90;;;;;;5089558;28;20035;-69
2022/02/12 09:39:11;;;;;;;14.82;6.13;;;4.50;99.90;;;;;;5069314;28;20483;-68
2022/02/12 09:41:36;;;;;;;11.93;5.95;;;4.60;99.90;;;;;;5088672;28;20074;-69
2022/02/12 09:44:02;;;;;;;9.45;5.55;;;4.70;99.90;;;;;;5089156;28;20024;-69
2022/02/12 09:46:30;;;;;;;9.38;5.30;;;4.70;99.90;;;;;;5090929;28;20443;-69
2022/02/12 09:49:01;;;;;;;10.73;5.78;;;4.70;99.90;;;;;;5088393;28;20031;-69
2022/02/12 09:51:28;;;;;;;11.18;5.25;;;4.60;99.90;;;;;;5089855;28;20032;-69
2022/02/12 09:53:54;;;;;;;9.25;4.97;;;4.70;99.90;;;;;;5090157;28;20110;-69
2022/02/12 09:56:21;;;;;;;14.40;5.97;;;4.70;99.90;;;;;;5086725;28;20050;-69
2022/02/12 09:58:46;;;;;;;13.75;5.60;;;4.70;99.90;;;;;;5077598;28;20031;-68
2022/02/12 10:01:12;;;;;;;12.57;5.07;;;4.70;99.90;;;;;;5087615;28;20097;-69
2022/02/12 10:03:41;;;;;;;14.63;5.25;;;4.80;99.90;;;;;;5082388;28;20541;-69
2022/02/12 10:06:07;;;;;;;13.60;5.45;;;4.70;99.90;;;;;;5086909;28;20074;-69
2022/02/12 10:08:37;;;;;;;10.55;5.43;;;4.70;99.90;;;;;;5087168;28;20465;-68
2022/02/12 10:11:16;;;;;;;12.25;5.35;;;4.70;99.90;;;;;;5072491;28;20024;-68
2022/02/12 10:13:42;;;;;;;10.52;5.70;;;4.70;99.90;;;;;;5082783;28;20365;-67
2022/02/12 10:16:08;;;;;;;13.02;5.75;;;4.70;99.90;;;;;;5086759;28;20012;-69
2022/02/12 10:18:39;;;;;;;11.30;5.63;;;4.60;99.90;;;;;;5085642;28;20533;-68
2022/02/12 10:21:05;;;;;;;8.73;4.97;;;4.70;99.90;;;;;;5068169;28;20038;-68
2022/02/12 10:23:33;;;;;;;10.73;4.50;;;4.70;99.90;;;;;;5081254;28;20016;-68
2022/02/12 10:26:01;;;;;;;8.98;4.10;;;4.80;99.90;;;;;;5065491;28;20036;-69
2022/02/12 10:28:29;;;;;;;6.53;4.28;;;4.80;99.90;;;;;;5087011;28;20031;-69
2022/02/12 10:30:55;;;;;;;8.27;3.72;;;4.80;99.90;;;;;;5084069;28;20070;-68
2022/02/12 10:33:21;;;;;;;10.13;4.05;;;4.90;99.90;;;;;;5090808;28;20016;-69
2022/02/12 10:35:58;;;;;;;9.05;4.15;;;4.90;99.90;;;;;;5090923;28;20024;-68
2022/02/12 10:38:26;;;;;;;9.18;4.00;;;4.90;99.90;;;;;;5090454;28;20020;-69
2022/02/12 10:41:13;;;;;;;9.48;3.78;;;4.90;99.90;;;;;;5084715;28;20020;-69
2022/02/12 10:43:43;;;;;;;10.85;4.38;;;4.80;99.90;;;;;;5077375;28;20028;-71
2022/02/12 10:46:09;;;;;;;8.77;4.22;;;4.90;99.90;;;;;;5086832;28;20028;-69
2022/02/12 10:48:38;;;;;;;8.02;3.78;;;4.90;99.90;;;;;;5088391;28;20016;-69
2022/02/12 10:51:14;;;;;;;9.23;3.72;;;4.90;99.90;;;;;;5091450;28;20081;-69
2022/02/12 10:53:55;;;;;;;8.48;4.50;;;4.90;99.90;;;;;;5086488;28;20167;-70
2022/02/12 10:56:20;;;;;;;5.38;3.65;;;4.90;99.90;;;;;;5085277;28;20031;-68
2022/02/12 10:58:48;;;;;;;9.07;3.65;;;4.90;99.90;;;;;;5079778;28;20028;-69
2022/02/12 11:01:13;;;;;;;8.32;3.88;;;4.90;99.90;;;;;;5071777;28;20028;-70
2022/02/12 11:03:39;;;;;;;8.82;3.38;;;4.90;99.90;;;;;;5068650;28;20523;-69
2022/02/12 11:06:06;;;;;;;10.18;3.35;;;4.90;99.90;;;;;;5073624;28;20111;-70
2022/02/12 11:08:32;;;;;;;10.10;3.40;;;4.90;99.90;;;;;;5089729;28;20036;-70
2022/02/12 11:11:00;;;;;;;8.80;2.78;;;4.90;99.90;;;;;;5076307;28;20032;-70
2022/02/12 11:13:25;;;;;;;6.60;3.10;;;5.00;99.90;;;;;;5098422;28;20161;-70
2022/02/12 11:15:51;;;;;;;8.10;2.88;;;5.00;99.90;;;;;;5073235;28;20059;-69
2022/02/12 11:18:22;;;;;;;8.02;3.08;;;5.00;99.90;;;;;;5085119;28;20048;-69
2022/02/12 11:23:21;;;;;;;5.28;2.78;;;5.00;99.90;;;;;;5061397;28;20049;-68
2022/02/12 11:25:51;;;;;;;5.97;3.00;;;5.00;99.90;;;;;;5045939;28;20024;-68
2022/02/12 11:28:18;;;;;;;6.90;2.78;;;5.00;99.90;;;;;;5067609;28;20032;-68
2022/02/12 11:30:45;;;;;;;6.97;2.80;;;5.10;99.90;;;;;;5058339;28;20035;-68
2022/02/12 11:33:18;;;;;;;6.18;2.97;;;5.10;99.90;;;;;;5050570;28;20028;-68
2022/02/12 11:36:04;;;;;;;11.40;3.08;;;5.20;99.90;;;;;;5066041;28;20024;-68
2022/02/12 11:38:39;;;;;;;4.78;2.63;;;5.20;99.90;;;;;;5059055;28;20039;-70
2022/02/12 11:41:26;;;;;;;4.32;2.58;;;5.20;99.90;;;;;;5063914;28;20388;-68
2022/02/12 11:43:54;;;;;;;7.20;2.30;;;5.20;99.90;;;;;;5066269;28;20044;-67
2022/02/12 11:46:43;;;;;;;4.13;2.13;;;5.30;99.90;;;;;;5068461;28;20025;-69
2022/02/12 11:49:31;;;;;;;5.55;2.20;;;5.30;99.90;;;;;;5065217;28;20082;-68
2022/02/12 11:52:01;;;;;;;5.65;2.25;;;5.40;99.90;;;;;;5063585;28;20115;-67
2022/02/12 11:55:00;;;;;;;6.15;2.10;;;5.50;99.90;;;;;;5068340;28;20086;-67
2022/02/12 11:57:25;;;;;;;7.60;2.40;;;5.70;99.90;;;;;;5062055;28;20380;-69
2022/02/12 12:00:03;;;;;;;3.40;2.30;;;5.80;99.90;;;;;;5066746;28;20024;-67
2022/02/12 12:02:51;;;;;;;6.70;2.22;;;6.00;99.90;;;;;;5063696;28;20103;-64
2022/02/12 12:05:25;;;;;;;4.28;2.13;;;6.10;99.90;;;;;;5070358;28;20036;-64
2022/02/12 12:08:00;;;;;;;6.82;2.00;;;6.30;99.90;;;;;;5061470;28;20805;-72
2022/02/12 12:10:30;;;;;;;5.38;2.38;;;6.40;99.90;;;;;;5069817;28;20029;-68
2022/02/12 12:13:00;;;;;;;4.45;2.15;;;6.50;99.90;;;;;;5061421;28;20389;-71
2022/02/12 12:15:26;;;;;;;5.28;2.63;;;6.60;99.90;;;;;;5061243;28;20048;-70
2022/02/12 12:18:00;;;;;;;2.92;2.10;;;6.60;99.90;;;;;;5062450;28;20492;-69
2022/02/12 12:20:37;;;;;;;3.70;1.85;;;6.70;99.90;;;;;;5064502;28;20540;-70
2022/02/12 12:23:06;;;;;;;3.85;2.22;;;6.80;99.90;;;;;;5072195;28;20039;-69
2022/02/12 12:25:52;;;;;;;3.03;2.08;;;6.80;99.90;;;;;;5063252;28;20021;-68
2022/02/12 12:28:29;;;;;;;5.50;2.17;;;6.90;99.90;;;;;;5072029;28;20115;-69
2022/02/12 12:30:57;;;;;;;2.63;1.70;;;7.00;99.90;;;;;;5073064;28;20024;-69
2022/02/12 12:33:28;;;;;;;1.65;1.42;;;7.00;99.90;;;;;;5067698;28;20091;-68
2022/02/12 12:35:55;;;;;;;1.75;1.27;;;7.10;99.90;;;;;;5052881;28;20029;-69
2022/02/12 12:38:45;;;;;;;2.40;1.35;;;7.10;99.90;;;;;;5052456;28;20035;-69
2022/02/12 12:41:32;;;;;;;2.47;1.42;;;7.10;99.60;;;;;;5053460;28;20680;-68
2022/02/12 12:44:14;;;;;;;3.63;1.42;;;7.10;99.20;;;;;;5058737;28;20027;-68
2022/02/12 12:46:51;;;;;;;4.13;1.92;;;7.20;99.10;;;;;;5073362;28;20036;-69
2022/02/12 12:49:27;;;;;;;2.90;1.60;;;7.30;99.10;;;;;;5061086;28;20033;-70
2022/02/12 12:51:53;;;;;;;3.83;1.88;;;7.40;98.90;;;;;;5065868;28;20097;-68
2022/02/12 12:54:33;;;;;;;8.75;2.13;;;7.40;99.00;;;;;;5072630;28;20092;-68
2022/02/12 12:57:01;;;;;;;3.13;1.75;;;7.60;98.50;;;;;;5072614;28;20033;-69